METAR Data
IDs: Format: Raw Decoded Include TAF

Data at: 1613 UTC 06 Jul 2020

KRKW 061555Z AUTO 00000KT 10SM CLR 28/19 A3010 RMK A01
KRKW 061535Z AUTO 00000KT 10SM CLR 27/20 A3010 RMK A01
KRKW 061515Z AUTO VRB04KT 10SM CLR 27/20 A3010 RMK A01
KRKW 061455Z AUTO VRB03KT 10SM FEW022 27/21 A3010 RMK A01
KRKW 061435Z AUTO 00000KT 10SM CLR 27/21 A3009 RMK A01
KRKW 061415Z AUTO 00000KT 10SM CLR 26/21 A3009 RMK A01
KRKW 061355Z AUTO 00000KT 10SM CLR 25/21 A3009 RMK A01
KRKW 061335Z AUTO 00000KT 10SM CLR 24/20 A3010 RMK A01
KRKW 061315Z AUTO 00000KT 10SM CLR 24/21 A3009 RMK A01
KRKW 061255Z AUTO 00000KT 10SM CLR 23/21 A3008 RMK A01
KRKW 061235Z AUTO 00000KT 10SM CLR 23/21 A3008 RMK A01
KRKW 061215Z AUTO 00000KT 9SM CLR 23/21 A3008 RMK A01
KRKW 061155Z AUTO 00000KT 8SM CLR 23/21 A3007 RMK A01
KRKW 061135Z AUTO 00000KT 7SM CLR 22/21 A3006 RMK A01
KRKW 061115Z AUTO 00000KT 4SM BR CLR 21/20 A3005 RMK A01
KRKW 061055Z AUTO 00000KT 8SM CLR 20/19 A3005 RMK A01
KRKW 061035Z AUTO 00000KT 6SM BR CLR 20/19 A3005 RMK A01
KRKW 061015Z AUTO 00000KT 7SM CLR 20/19 A3005 RMK A01
KRKW 060955Z AUTO 00000KT 8SM CLR 20/19 A3004 RMK A01
KRKW 060935Z AUTO 00000KT 7SM CLR 20/19 A3003 RMK A01
KRKW 060915Z AUTO 00000KT 9SM CLR 20/19 A3002 RMK A01
KRKW 060855Z AUTO 00000KT 6SM BR CLR 20/19 A3002 RMK A01
KRKW 060835Z AUTO 00000KT 7SM CLR 20/19 A3001 RMK A01
KRKW 060815Z AUTO 00000KT 9SM CLR 20/19 A3001 RMK A01
KRKW 060755Z AUTO 00000KT 7SM CLR 20/19 A3000 RMK A01
KRKW 060735Z AUTO 00000KT 6SM BR CLR 20/20 A3001 RMK A01
KRKW 060715Z AUTO 00000KT 9SM CLR 21/20 A3001 RMK A01
KRKW 060655Z AUTO 00000KT 8SM CLR 21/20 A3001 RMK A01
KRKW 060635Z AUTO 00000KT 7SM CLR 21/20 A3002 RMK A01
KRKW 060615Z AUTO 00000KT 8SM CLR 21/20 A3002 RMK A01
KRKW 060555Z AUTO 00000KT 9SM CLR 21/20 A3003 RMK A01
KRKW 060535Z AUTO 00000KT 9SM CLR 21/20 A3003 RMK A01
KRKW 060515Z AUTO 00000KT 10SM CLR 21/21 A3003 RMK A01
KRKW 060455Z AUTO 00000KT 9SM CLR 21/21 A3003 RMK A01
KRKW 060435Z AUTO 00000KT 8SM CLR 21/21 A3004 RMK A01
KRKW 060415Z AUTO 00000KT 9SM CLR 21/21 A3003 RMK A01
KRKW 060355Z AUTO 00000KT 10SM 22/21 A3003 RMK A01
KRKW 060245Z AUTO 00000KT 10SM CLR 22/21 A3003 RMK A01
KRKW 060235Z AUTO 00000KT 10SM CLR 22/21 A3003 RMK A01
KRKW 060215Z AUTO 00000KT 10SM CLR 22/21 A3002 RMK A01
KRKW 060155Z AUTO 00000KT 10SM FEW120 22/21 A3002 RMK A01
KRKW 060135Z AUTO 00000KT 10SM SCT120 23/21 A3002 RMK A01
KRKW 060115Z AUTO 29004KT 10SM SCT120 23/22 A3002 RMK A01
KRKW 060055Z AUTO 00000KT 10SM CLR 24/22 A3001 RMK A01
KRKW 060035Z AUTO 00000KT 10SM CLR 24/22 A3001 RMK A01
KRKW 060015Z AUTO 00000KT 10SM CLR 25/22 A3000 RMK A01
KRKW 052355Z AUTO 00000KT 10SM CLR 25/22 A3001 RMK A01
KRKW 052335Z AUTO 00000KT 10SM CLR 26/22 A2999 RMK A01
KRKW 052315Z AUTO 00000KT 10SM CLR 26/21 A2998 RMK A01
KRKW 052255Z AUTO 00000KT 10SM CLR 26/21 A2997 RMK A01
KRKW 052235Z AUTO 00000KT 10SM CLR 26/20 A2997 RMK A01
KRKW 052215Z AUTO 00000KT 10SM CLR 26/20 A2998 RMK A01
KRKW 052155Z AUTO 00000KT 10SM CLR 26/19 A2998 RMK A01
KRKW 052135Z AUTO 00000KT 10SM FEW029 25/19 A2996 RMK A01
KRKW 052115Z AUTO 14007G20KT 10SM SCT029 SCT047 BKN065 25/18 A2999 RMK A01
KRKW 052055Z AUTO VRB03KT 10SM CLR 28/21 A3000 RMK A01
KRKW 052035Z AUTO 00000KT 10SM CLR 28/21 A2999 RMK A01
KRKW 052015Z AUTO VRB04KT 10SM CLR 28/21 A2999 RMK A01
KRKW 051955Z AUTO VRB04KT 10SM CLR 29/20 A3000 RMK A01
KRKW 051935Z AUTO VRB03G10KT 10SM FEW042 28/19 A3001 RMK A01
KRKW 051915Z AUTO 32008KT 10SM FEW043 28/20 A3001 RMK A01
KRKW 051855Z AUTO 24003KT 10SM CLR 30/20 A3001 RMK A01
KRKW 051835Z AUTO 19004KT 10SM CLR 30/19 A3002 RMK A01
KRKW 051815Z AUTO VRB03KT 10SM FEW038 31/20 A3001 RMK A01
KRKW 051755Z AUTO VRB04KT 10SM SCT035 SCT044 31/20 A3001 RMK A01
KRKW 051735Z AUTO VRB03KT 10SM FEW036 FEW044 30/20 A3002 RMK A01
KRKW 051715Z AUTO VRB04KT 10SM CLR 30/20 A3002 RMK A01
KRKW 051655Z AUTO VRB05KT 10SM CLR 30/21 A3004 RMK A01
KRKW 051635Z AUTO VRB06KT 10SM CLR 29/21 A3005 RMK A01
KRKW 051615Z AUTO 16006KT 10SM CLR 29/21 A3005 RMK A01
KRKW 051555Z AUTO VRB05KT 10SM SCT025 29/22 A3004 RMK A01
KRKW 051535Z AUTO 15005KT 10SM BKN025 28/22 A3005 RMK A01
KRKW 051515Z AUTO 00000KT 10SM CLR 27/22 A3005 RMK A01
KRKW 051455Z AUTO 00000KT 10SM CLR 27/21 A3004 RMK A01
KRKW 051435Z AUTO 00000KT 9SM FEW120 27/22 A3004 RMK A01
KRKW 051415Z AUTO 00000KT 8SM FEW110 25/21 A3004 RMK A01
KRKW 051355Z AUTO 00000KT 8SM FEW110 24/21 A3004 RMK A01
KRKW 051335Z AUTO 00000KT 9SM FEW110 24/21 A3004 RMK A01
KRKW 051315Z AUTO 00000KT 9SM SCT110 24/21 A3003 RMK A01
KRKW 051255Z AUTO 00000KT 10SM BKN110 24/20 A3003 RMK A01
KRKW 051235Z AUTO 00000KT 10SM CLR 24/21 A3002 RMK A01
KRKW 051215Z AUTO 00000KT 10SM CLR 23/21 A3002 RMK A01
KRKW 051155Z AUTO 00000KT 7SM FEW110 22/21 A3001 RMK A01
KRKW 051135Z AUTO 00000KT 8SM CLR 22/20 A3001 RMK A01
KRKW 051115Z AUTO 00000KT 8SM CLR 21/20 A3000 RMK A01
KRKW 051055Z AUTO 00000KT 8SM CLR 20/20 A2999 RMK A01
KRKW 051035Z AUTO 31003KT 7SM CLR 20/19 A3000 RMK A01
KRKW 051015Z AUTO 00000KT 10SM CLR 21/20 A2999 RMK A01
KRKW 050955Z AUTO 00000KT 9SM CLR 21/20 A2999 RMK A01
KRKW 050935Z AUTO 12003KT 10SM CLR 21/20 A2998 RMK A01
KRKW 050915Z AUTO 13004KT 10SM CLR 22/20 A2998 RMK A01
KRKW 050855Z AUTO 00000KT 10SM CLR 21/20 A2997 RMK A01
KRKW 050835Z AUTO 00000KT 10SM CLR 22/20 A2997 RMK A01
KRKW 050815Z AUTO 00000KT 10SM FEW120 22/20 A2996 RMK A01
KRKW 050755Z AUTO 00000KT 10SM SCT120 23/20 A2997 RMK A01
KRKW 050735Z AUTO 00000KT 10SM OVC110 22/20 A2997 RMK A01
KRKW 050715Z AUTO 00000KT 10SM BKN120 23/20 A2997 RMK A01
KRKW 050655Z AUTO 01003KT 10SM BKN120 23/20 A2998 RMK A01
KRKW 050635Z AUTO 31003KT 10SM OVC120 23/20 A2998 RMK A01
KRKW 050615Z AUTO 00000KT 10SM OVC120 23/20 A2998 RMK A01
KRKW 050555Z AUTO 00000KT 10SM OVC120 23/20 A2999 RMK A01
KRKW 050535Z AUTO 29004KT 10SM OVC120 23/20 A2999 RMK A01
KRKW 050515Z AUTO 28003KT 10SM FEW022 BKN120 22/20 A3000 RMK A01
KRKW 050455Z AUTO 30004KT 10SM FEW120 22/20 A3000 RMK A01
KRKW 050435Z AUTO 28003KT 10SM CLR 22/20 A3000 RMK A01
KRKW 050415Z AUTO 00000KT 10SM FEW050 SCT055 23/20 A3000 RMK A01